Time;durP1;ratioP1;P1;durP2;ratioP2;P2;SDS_P1;SDS_P2;PMS_P1;PMS_P2;Temp;Humidity;BMP_temperature;BMP_pressure;BME280_temperature;BME280_humidity;BME280_pressure;Samples;Min_cycle;Max_cycle;Signal;HPM_P1;HPM_P2
2022/04/05 00:00:49;;;;;;;2.83;2.17;;;6.90;99.90;;;;;;5074232;28;20449;-72
2022/04/05 00:03:36;;;;;;;4.10;1.93;;;6.90;99.90;;;;;;5072884;28;20490;-72
2022/04/05 00:06:23;;;;;;;1.60;1.40;;;6.80;99.90;;;;;;5074622;28;20435;-72
2022/04/05 00:09:12;;;;;;;3.23;2.40;;;6.70;99.90;;;;;;5073072;28;20434;-72
2022/04/05 00:11:58;;;;;;;1.47;1.37;;;6.80;99.90;;;;;;5073517;28;20467;-72
2022/04/05 00:14:45;;;;;;;4.90;3.27;;;6.80;99.90;;;;;;5071225;28;20425;-71
2022/04/05 00:17:33;;;;;;;2.23;1.50;;;6.80;99.90;;;;;;5073211;28;20440;-71
2022/04/05 00:20:20;;;;;;;0.93;0.93;;;6.80;99.90;;;;;;5072977;28;20458;-71
2022/04/05 00:23:07;;;;;;;2.20;1.90;;;6.80;99.90;;;;;;5072937;28;21034;-72
2022/04/05 00:25:55;;;;;;;2.23;1.37;;;6.70;99.90;;;;;;5060712;28;20432;-72
2022/04/05 00:28:42;;;;;;;1.30;1.20;;;6.70;99.90;;;;;;5065142;28;20448;-72
2022/04/05 00:31:29;;;;;;;2.33;1.03;;;6.70;99.90;;;;;;5060817;28;20429;-72
2022/04/05 00:34:16;;;;;;;1.50;0.77;;;6.60;99.90;;;;;;5063506;28;20424;-72
2022/04/05 00:37:03;;;;;;;0.70;0.70;;;6.60;99.90;;;;;;5055496;28;20836;-73
2022/04/05 00:39:50;;;;;;;1.23;0.70;;;6.50;99.90;;;;;;5055922;28;20989;-72
2022/04/05 00:42:38;;;;;;;0.60;0.53;;;6.40;99.90;;;;;;5058478;28;20511;-72
2022/04/05 00:45:25;;;;;;;0.40;0.40;;;6.30;99.90;;;;;;5060848;28;20425;-72
2022/04/05 00:48:29;;;;;;;0.40;0.40;;;6.20;99.90;;;;;;5059148;28;20904;-73
2022/04/05 00:51:17;;;;;;;0.40;0.40;;;6.20;99.90;;;;;;5058907;28;20843;-72
2022/04/05 00:54:06;;;;;;;0.67;0.57;;;6.10;99.90;;;;;;5057785;28;20960;-73
2022/04/05 00:56:56;;;;;;;0.50;0.50;;;6.20;99.90;;;;;;5061198;28;20478;-72
2022/04/05 00:59:47;;;;;;;0.70;0.70;;;6.10;99.90;;;;;;5060975;28;20448;-72
2022/04/05 01:02:37;;;;;;;1.60;1.10;;;6.10;99.90;;;;;;5062604;28;20432;-72
2022/04/05 01:05:26;;;;;;;0.40;0.40;;;6.10;99.90;;;;;;5058733;28;20986;-72
2022/04/05 01:08:15;;;;;;;0.57;0.57;;;6.10;99.90;;;;;;5058134;28;20921;-73
2022/04/05 01:11:03;;;;;;;0.53;0.53;;;6.20;99.90;;;;;;5060736;28;20441;-73
2022/04/05 01:13:50;;;;;;;1.33;0.80;;;6.20;99.90;;;;;;5061364;28;20417;-72
2022/04/05 01:16:39;;;;;;;0.93;0.60;;;6.10;99.90;;;;;;5061479;28;20428;-73
2022/04/05 01:19:27;;;;;;;1.13;0.80;;;6.00;99.90;;;;;;5061231;28;20527;-73
2022/04/05 01:22:14;;;;;;;0.50;0.50;;;5.90;99.90;;;;;;5065924;28;20416;-73
2022/04/05 01:25:03;;;;;;;0.50;0.50;;;5.80;99.90;;;;;;5061474;28;20456;-72
2022/04/05 01:27:51;;;;;;;1.90;1.80;;;5.80;99.90;;;;;;5058195;28;20474;-73
2022/04/05 01:30:38;;;;;;;1.27;1.17;;;5.70;99.90;;;;;;5059720;28;20448;-72
2022/04/05 01:33:25;;;;;;;1.17;0.80;;;5.60;99.90;;;;;;5065071;28;20435;-73
2022/04/05 01:36:22;;;;;;;0.60;0.60;;;5.60;99.90;;;;;;5064515;28;20416;-73
2022/04/05 01:39:09;;;;;;;0.40;0.40;;;5.50;99.90;;;;;;5057357;28;20421;-72
2022/04/05 01:42:00;;;;;;;1.27;0.50;;;5.50;99.90;;;;;;5060767;28;20431;-73
2022/04/05 01:44:47;;;;;;;0.63;0.63;;;5.40;99.90;;;;;;5055818;28;20465;-72
2022/04/05 01:47:34;;;;;;;0.63;0.60;;;5.40;99.90;;;;;;5057578;28;20979;-73
2022/04/05 01:50:21;;;;;;;0.50;0.50;;;5.40;99.90;;;;;;5058606;28;20979;-73
2022/04/05 01:53:08;;;;;;;0.40;0.40;;;5.40;99.90;;;;;;5058471;28;20428;-72
2022/04/05 01:55:55;;;;;;;0.63;0.63;;;5.40;99.90;;;;;;5058674;28;20420;-72
2022/04/05 01:58:43;;;;;;;0.40;0.40;;;5.40;99.90;;;;;;5060195;28;20439;-72
2022/04/05 02:01:30;;;;;;;2.23;0.70;;;5.30;99.90;;;;;;5061137;28;20439;-72
2022/04/05 02:04:17;;;;;;;0.60;0.60;;;5.30;99.90;;;;;;5041269;28;20457;-73
2022/04/05 02:07:10;;;;;;;0.93;0.80;;;5.30;99.90;;;;;;5038249;28;20421;-73
2022/04/05 02:09:57;;;;;;;0.40;0.40;;;5.20;99.90;;;;;;5038226;28;20824;-73
2022/04/05 02:12:44;;;;;;;0.40;0.40;;;5.40;99.90;;;;;;5038439;28;20432;-73
2022/04/05 02:15:32;;;;;;;0.40;0.40;;;5.30;99.90;;;;;;5039553;28;20440;-73
2022/04/05 02:18:19;;;;;;;0.60;0.60;;;5.20;99.90;;;;;;5038196;28;20717;-73
2022/04/05 02:21:06;;;;;;;0.77;0.70;;;5.20;99.90;;;;;;5038688;28;20460;-73
2022/04/05 02:23:53;;;;;;;0.40;0.40;;;5.40;99.90;;;;;;5036705;28;20475;-72
2022/04/05 02:26:40;;;;;;;0.50;0.50;;;5.20;99.90;;;;;;5038792;28;20433;-73
2022/04/05 02:29:27;;;;;;;0.50;0.50;;;5.20;99.90;;;;;;5039325;28;20445;-73
2022/04/05 02:32:15;;;;;;;0.70;0.50;;;5.20;99.90;;;;;;5037148;28;20437;-72
2022/04/05 02:35:02;;;;;;;3.60;0.77;;;5.30;99.90;;;;;;5039122;28;20421;-73
2022/04/05 02:37:49;;;;;;;0.50;0.50;;;5.20;99.90;;;;;;5045155;28;20433;-72
2022/04/05 02:40:36;;;;;;;0.40;0.40;;;5.10;99.90;;;;;;5079510;22;20507;-69
2022/04/05 02:43:22;;;;;;;0.50;0.50;;;5.10;99.90;;;;;;5067908;28;20428;-68
2022/04/05 02:46:11;;;;;;;0.43;0.43;;;5.10;99.90;;;;;;5072710;28;20459;-69
2022/04/05 02:48:59;;;;;;;0.50;0.50;;;5.20;99.90;;;;;;5072596;28;20421;-69
2022/04/05 02:51:46;;;;;;;0.50;0.50;;;5.10;99.90;;;;;;5071442;28;20457;-68
2022/04/05 02:54:33;;;;;;;0.40;0.40;;;5.00;99.90;;;;;;5072125;28;20421;-68
2022/04/05 02:57:20;;;;;;;0.60;0.60;;;5.00;99.90;;;;;;5073014;28;20425;-69
2022/04/05 03:00:08;;;;;;;0.70;0.70;;;5.00;99.90;;;;;;5068077;28;20444;-68
2022/04/05 03:02:56;;;;;;;0.50;0.50;;;5.00;99.90;;;;;;5073542;28;20431;-68
2022/04/05 03:05:44;;;;;;;0.50;0.50;;;5.00;99.90;;;;;;5069071;28;20427;-68
2022/04/05 03:08:31;;;;;;;0.60;0.60;;;5.00;99.90;;;;;;5073099;28;20447;-68
2022/04/05 03:11:18;;;;;;;0.40;0.40;;;5.00;99.90;;;;;;5069223;28;20440;-68
2022/04/05 03:14:05;;;;;;;0.63;0.63;;;5.00;99.90;;;;;;5073900;28;20443;-68
2022/04/05 03:16:52;;;;;;;0.40;0.40;;;5.00;99.90;;;;;;5074694;28;20455;-68
2022/04/05 03:19:39;;;;;;;0.50;0.50;;;5.00;99.90;;;;;;5071690;28;20480;-68
2022/04/05 03:22:27;;;;;;;0.60;0.50;;;5.00;99.90;;;;;;5069820;28;20424;-68
2022/04/05 03:25:14;;;;;;;8.60;1.17;;;5.00;99.90;;;;;;5074523;28;20456;-68
2022/04/05 03:28:02;;;;;;;0.80;0.80;;;5.10;99.90;;;;;;5072596;28;20482;-67
2022/04/05 03:30:49;;;;;;;1.03;0.70;;;5.00;99.90;;;;;;5075088;28;20457;-68
2022/04/05 03:33:36;;;;;;;0.50;0.50;;;5.10;99.90;;;;;;5074794;28;20413;-68
2022/04/05 03:36:23;;;;;;;1.17;0.90;;;5.10;99.90;;;;;;5072382;28;20428;-67
2022/04/05 03:39:13;;;;;;;0.40;0.40;;;5.00;99.90;;;;;;5074023;28;20821;-68
2022/04/05 03:42:00;;;;;;;0.47;0.47;;;5.10;99.90;;;;;;5072542;28;20420;-68
2022/04/05 03:44:47;;;;;;;0.50;0.50;;;5.10;99.90;;;;;;5074799;28;20472;-67
2022/04/05 03:47:34;;;;;;;0.40;0.40;;;5.00;99.90;;;;;;5074910;28;20417;-67
2022/04/05 03:50:22;;;;;;;0.60;0.60;;;5.10;99.90;;;;;;5074378;28;20432;-67
2022/04/05 03:53:09;;;;;;;0.60;0.60;;;5.10;99.90;;;;;;5074079;28;20440;-67
2022/04/05 03:55:57;;;;;;;0.50;0.50;;;5.00;99.90;;;;;;5066692;28;20478;-67
2022/04/05 03:58:44;;;;;;;0.50;0.50;;;5.10;99.90;;;;;;5053933;28;20848;-67
2022/04/05 04:01:31;;;;;;;0.50;0.50;;;5.10;99.90;;;;;;5052614;28;20453;-66
2022/04/05 04:04:18;;;;;;;0.40;0.40;;;5.20;99.90;;;;;;5033491;28;20472;-67
2022/04/05 04:07:05;;;;;;;0.60;0.60;;;5.20;99.90;;;;;;5033215;28;20425;-67
2022/04/05 04:09:52;;;;;;;0.47;0.47;;;5.20;99.90;;;;;;5032787;28;20449;-67
2022/04/05 04:12:40;;;;;;;4.10;1.17;;;5.20;99.90;;;;;;5033324;28;20422;-67
2022/04/05 04:15:27;;;;;;;0.50;0.50;;;5.20;99.90;;;;;;5035498;28;20425;-66
2022/04/05 04:18:14;;;;;;;0.50;0.50;;;5.20;99.90;;;;;;5033388;28;20430;-67
2022/04/05 04:21:01;;;;;;;0.40;0.40;;;5.20;99.90;;;;;;5032712;28;20957;-67
2022/04/05 04:23:48;;;;;;;0.50;0.50;;;5.20;99.90;;;;;;5033442;28;20452;-67
2022/04/05 04:26:35;;;;;;;0.50;0.50;;;5.20;99.90;;;;;;5033169;28;20425;-67
2022/04/05 04:29:23;;;;;;;1.80;1.70;;;5.30;99.90;;;;;;5032819;28;20422;-66
2022/04/05 04:32:10;;;;;;;3.07;0.70;;;5.30;99.90;;;;;;5032909;28;20444;-66
2022/04/05 04:34:57;;;;;;;2.07;1.90;;;5.10;99.90;;;;;;5033100;28;20736;-66
2022/04/05 04:37:44;;;;;;;2.20;1.37;;;5.20;99.90;;;;;;5033398;28;20545;-67
2022/04/05 04:40:31;;;;;;;2.10;0.97;;;5.20;99.90;;;;;;5032321;28;20981;-66
2022/04/05 04:43:19;;;;;;;0.40;0.40;;;5.20;99.90;;;;;;5032439;28;20437;-66
2022/04/05 04:46:08;;;;;;;0.40;0.40;;;5.10;99.90;;;;;;5033584;28;20465;-67
2022/04/05 04:48:55;;;;;;;0.40;0.40;;;5.20;99.90;;;;;;5033625;28;20436;-67
2022/04/05 04:51:41;;;;;;;0.50;0.50;;;5.20;99.90;;;;;;5033803;28;20465;-67
2022/04/05 04:54:28;;;;;;;0.40;0.40;;;5.20;99.90;;;;;;5034026;28;20425;-67
2022/04/05 04:57:15;;;;;;;1.43;0.60;;;5.30;99.90;;;;;;5033315;28;20428;-67
2022/04/05 05:00:02;;;;;;;1.37;1.27;;;5.20;99.90;;;;;;5033817;28;20441;-67
2022/04/05 05:02:51;;;;;;;0.50;0.50;;;5.20;99.90;;;;;;5042961;28;20940;-67
2022/04/05 05:05:38;;;;;;;0.40;0.40;;;5.20;99.90;;;;;;5052991;28;20996;-68
2022/04/05 05:08:25;;;;;;;0.40;0.40;;;5.20;99.90;;;;;;5052705;28;20439;-67
2022/04/05 05:11:12;;;;;;;0.40;0.40;;;5.30;99.90;;;;;;5052556;28;20961;-67
2022/04/05 05:13:59;;;;;;;0.60;0.60;;;5.30;99.90;;;;;;5053225;28;20440;-68
2022/04/05 05:16:46;;;;;;;0.50;0.50;;;5.30;99.90;;;;;;5052677;28;20421;-67
2022/04/05 05:19:35;;;;;;;0.50;0.50;;;5.30;99.90;;;;;;5053071;28;20861;-68
2022/04/05 05:22:22;;;;;;;0.50;0.50;;;5.30;99.90;;;;;;5052476;28;20483;-67
2022/04/05 05:25:11;;;;;;;0.50;0.50;;;5.40;99.90;;;;;;5052334;28;20979;-67
2022/04/05 05:27:58;;;;;;;0.50;0.50;;;5.40;99.90;;;;;;5053591;28;20431;-66
2022/04/05 05:30:44;;;;;;;0.50;0.50;;;5.40;99.90;;;;;;5053253;28;20452;-68
2022/04/05 05:33:32;;;;;;;0.40;0.40;;;5.50;99.90;;;;;;5052261;28;20833;-68
2022/04/05 05:36:20;;;;;;;5.70;1.43;;;5.50;99.90;;;;;;5053112;28;20429;-67
2022/04/05 05:39:07;;;;;;;0.73;0.73;;;5.60;99.90;;;;;;5048715;28;20433;-69
2022/04/05 05:41:54;;;;;;;0.50;0.50;;;5.60;99.90;;;;;;5047952;28;20428;-68
2022/04/05 05:44:41;;;;;;;0.70;0.70;;;5.60;99.90;;;;;;5045599;28;20467;-68
2022/04/05 05:47:28;;;;;;;0.50;0.50;;;5.60;99.90;;;;;;5051365;28;20448;-68
2022/04/05 05:50:16;;;;;;;0.50;0.50;;;5.70;99.90;;;;;;5049814;28;20815;-68
2022/04/05 05:53:05;;;;;;;3.60;1.70;;;5.80;99.90;;;;;;5050931;28;20428;-69
2022/04/05 05:55:52;;;;;;;0.40;0.40;;;5.80;99.90;;;;;;5059367;28;20408;-69
2022/04/05 05:58:39;;;;;;;0.50;0.50;;;5.90;99.90;;;;;;5032810;28;20965;-68
2022/04/05 06:01:26;;;;;;;0.50;0.50;;;5.90;99.90;;;;;;5036290;28;20445;-68
2022/04/05 06:04:14;;;;;;;0.50;0.50;;;6.00;99.90;;;;;;5032093;28;20417;-67
2022/04/05 06:07:00;;;;;;;0.40;0.40;;;6.10;99.90;;;;;;5049652;28;20420;-68
2022/04/05 06:09:49;;;;;;;0.50;0.50;;;5.90;99.90;;;;;;5063336;28;20448;-68
2022/04/05 06:12:38;;;;;;;0.50;0.50;;;6.10;99.90;;;;;;5070245;28;20429;-68
2022/04/05 06:15:26;;;;;;;0.50;0.50;;;6.10;99.90;;;;;;5053420;28;20515;-68
2022/04/05 06:18:13;;;;;;;0.43;0.43;;;6.10;99.90;;;;;;5070165;28;20436;-69
2022/04/05 06:21:06;;;;;;;0.60;0.50;;;6.30;99.90;;;;;;5070243;28;20444;-69
2022/04/05 06:23:53;;;;;;;0.50;0.50;;;6.30;99.90;;;;;;5067625;28;20428;-68
2022/04/05 06:26:41;;;;;;;1.47;1.17;;;6.30;99.90;;;;;;5065713;28;20425;-68
2022/04/05 06:29:28;;;;;;;0.40;0.40;;;6.40;99.90;;;;;;5066815;28;20451;-68
2022/04/05 06:32:17;;;;;;;0.40;0.40;;;6.40;99.90;;;;;;5068424;28;20424;-68
2022/04/05 06:35:07;;;;;;;0.67;0.67;;;6.50;99.90;;;;;;5069057;28;20417;-68
2022/04/05 06:37:54;;;;;;;0.50;0.50;;;6.50;99.90;;;;;;5070319;28;20431;-68
2022/04/05 06:40:43;;;;;;;2.93;1.00;;;6.50;99.90;;;;;;5059940;28;20549;-68
2022/04/05 06:43:34;;;;;;;0.50;0.50;;;6.70;99.90;;;;;;5047750;28;20507;-68
2022/04/05 06:46:22;;;;;;;4.20;0.70;;;6.60;99.90;;;;;;5053125;28;21022;-68
2022/04/05 06:49:09;;;;;;;0.40;0.40;;;6.60;99.90;;;;;;5055742;28;20444;-66
2022/04/05 06:51:56;;;;;;;0.50;0.50;;;6.70;99.90;;;;;;5056246;28;20443;-66
2022/04/05 06:54:43;;;;;;;0.40;0.40;;;6.70;99.90;;;;;;5050955;28;20444;-67
2022/04/05 06:57:30;;;;;;;2.03;1.03;;;6.70;99.90;;;;;;5055798;28;20542;-66
2022/04/05 07:00:21;;;;;;;0.50;0.50;;;6.70;99.90;;;;;;5055515;28;20456;-66
2022/04/05 07:03:08;;;;;;;0.57;0.57;;;6.70;99.90;;;;;;5055243;28;20506;-68
2022/04/05 07:05:57;;;;;;;1.67;1.00;;;6.60;99.90;;;;;;5042905;28;20724;-67
2022/04/05 07:08:44;;;;;;;2.93;0.70;;;6.40;99.90;;;;;;5056501;28;20424;-67
2022/04/05 07:11:31;;;;;;;0.80;0.67;;;6.40;99.90;;;;;;5053827;28;20448;-67
2022/04/05 07:14:18;;;;;;;0.60;0.60;;;6.50;99.90;;;;;;5035365;28;20421;-67
2022/04/05 07:17:07;;;;;;;0.70;0.50;;;6.50;99.90;;;;;;5034856;28;20429;-68
2022/04/05 07:19:54;;;;;;;0.50;0.50;;;6.60;99.90;;;;;;5032722;28;20973;-68
2022/04/05 07:22:47;;;;;;;1.63;0.67;;;6.60;99.90;;;;;;5053315;28;20440;-68
2022/04/05 07:25:35;;;;;;;0.50;0.50;;;6.70;99.90;;;;;;5054003;28;20980;-67
2022/04/05 07:28:22;;;;;;;2.20;0.60;;;6.60;99.90;;;;;;5054583;28;20477;-68
2022/04/05 07:31:09;;;;;;;1.80;0.93;;;6.60;99.90;;;;;;5053652;28;20452;-67
2022/04/05 07:33:57;;;;;;;1.60;0.50;;;6.50;99.90;;;;;;5054109;28;20806;-67
2022/04/05 07:36:44;;;;;;;0.50;0.50;;;6.50;99.90;;;;;;5054876;28;20425;-68
2022/04/05 07:39:31;;;;;;;0.50;0.50;;;6.50;99.90;;;;;;5046220;28;20459;-67
2022/04/05 07:42:18;;;;;;;0.50;0.50;;;6.60;99.90;;;;;;5052815;28;20450;-67
2022/04/05 07:45:06;;;;;;;0.87;0.83;;;6.70;99.90;;;;;;5046504;28;20466;-68
2022/04/05 07:47:53;;;;;;;0.67;0.67;;;6.80;99.90;;;;;;5041486;28;20929;-68
2022/04/05 07:50:42;;;;;;;0.77;0.77;;;6.90;99.90;;;;;;5052855;28;20455;-69
2022/04/05 07:53:29;;;;;;;0.60;0.60;;;7.00;99.90;;;;;;5053633;28;20930;-69
2022/04/05 07:56:16;;;;;;;1.43;0.60;;;7.10;99.90;;;;;;5052943;28;20943;-69
2022/04/05 07:59:03;;;;;;;0.70;0.70;;;7.10;99.90;;;;;;5053763;28;20443;-67
2022/04/05 08:01:50;;;;;;;2.40;0.80;;;7.20;99.90;;;;;;5052337;28;20514;-68
2022/04/05 08:04:37;;;;;;;0.60;0.50;;;7.30;99.90;;;;;;5053249;28;20570;-67
2022/04/05 08:07:26;;;;;;;0.67;0.63;;;7.20;99.90;;;;;;5051618;28;20435;-68
2022/04/05 08:10:14;;;;;;;0.80;0.80;;;7.20;99.90;;;;;;5052827;28;20444;-68
2022/04/05 08:13:01;;;;;;;1.80;0.50;;;7.20;99.90;;;;;;5052247;28;20494;-69
2022/04/05 08:15:48;;;;;;;0.60;0.60;;;7.10;99.90;;;;;;5051501;28;20421;-68
2022/04/05 08:18:36;;;;;;;0.67;0.67;;;7.20;99.90;;;;;;5053097;28;20432;-69
2022/04/05 08:21:23;;;;;;;0.70;0.60;;;7.30;99.90;;;;;;5053830;28;20459;-68
2022/04/05 08:24:11;;;;;;;0.60;0.60;;;7.40;99.90;;;;;;5052662;28;20802;-68
2022/04/05 08:26:58;;;;;;;0.50;0.50;;;7.60;99.90;;;;;;5049272;28;20464;-68
2022/04/05 08:29:45;;;;;;;0.60;0.50;;;7.80;99.90;;;;;;5046036;28;20443;-68
2022/04/05 08:32:34;;;;;;;0.50;0.50;;;8.00;99.90;;;;;;5051349;28;20963;-68
2022/04/05 08:35:23;;;;;;;0.50;0.50;;;8.10;99.90;;;;;;5032060;28;20909;-68
2022/04/05 08:38:10;;;;;;;0.70;0.50;;;8.30;99.90;;;;;;5035931;28;20447;-69
2022/04/05 08:41:03;;;;;;;1.43;0.60;;;8.30;99.90;;;;;;5050632;28;20467;-68
2022/04/05 08:43:51;;;;;;;6.00;2.80;;;8.40;99.90;;;;;;5044070;28;20427;-68
2022/04/05 08:46:40;;;;;;;0.40;0.40;;;8.40;99.90;;;;;;5047684;28;20472;-68
2022/04/05 08:49:29;;;;;;;0.50;0.50;;;8.40;99.90;;;;;;5049194;28;20482;-68
2022/04/05 08:52:16;;;;;;;2.20;0.60;;;8.40;99.90;;;;;;5050642;28;20479;-68
2022/04/05 08:55:04;;;;;;;1.17;0.60;;;8.50;99.90;;;;;;5051543;28;20416;-68
2022/04/05 08:57:52;;;;;;;7.60;0.70;;;8.90;99.90;;;;;;5037525;28;20444;-67
2022/04/05 09:00:39;;;;;;;0.87;0.57;;;8.80;99.90;;;;;;5045645;28;20510;-70
2022/04/05 09:03:28;;;;;;;0.70;0.70;;;8.90;99.90;;;;;;5048407;28;20436;-68
2022/04/05 09:06:25;;;;;;;0.50;0.50;;;8.90;99.90;;;;;;5052649;28;20472;-69
2022/04/05 09:09:14;;;;;;;1.10;0.93;;;8.70;99.90;;;;;;5051443;28;20428;-69
2022/04/05 09:12:01;;;;;;;0.50;0.50;;;8.70;99.90;;;;;;5049929;28;20475;-69
2022/04/05 09:14:50;;;;;;;0.60;0.60;;;8.50;99.90;;;;;;5051283;28;20462;-68
2022/04/05 09:17:42;;;;;;;1.20;1.10;;;8.60;99.90;;;;;;5048599;28;20432;-68
2022/04/05 09:20:30;;;;;;;0.40;0.40;;;8.80;99.90;;;;;;5050124;28;20460;-69
2022/04/05 09:23:25;;;;;;;0.80;0.60;;;9.10;99.90;;;;;;5049388;28;20438;-68
2022/04/05 09:26:14;;;;;;;1.10;0.70;;;9.40;99.90;;;;;;5051002;28;20496;-68
2022/04/05 09:29:07;;;;;;;0.50;0.50;;;9.40;99.90;;;;;;5050899;28;20444;-69
2022/04/05 09:31:55;;;;;;;1.73;1.67;;;9.50;99.90;;;;;;5046650;28;20432;-68
2022/04/05 09:34:49;;;;;;;0.70;0.70;;;9.40;99.90;;;;;;5045954;28;20428;-69
2022/04/05 09:37:38;;;;;;;0.70;0.70;;;9.20;99.90;;;;;;5046375;28;20810;-69
2022/04/05 09:40:32;;;;;;;1.43;0.70;;;9.30;99.90;;;;;;5044387;28;20479;-68
2022/04/05 09:43:21;;;;;;;0.57;0.57;;;9.40;99.90;;;;;;5045213;28;20951;-68
2022/04/05 09:46:08;;;;;;;0.70;0.70;;;9.60;99.90;;;;;;5045476;28;20496;-68
2022/04/05 09:49:06;;;;;;;0.53;0.53;;;9.80;99.90;;;;;;5039451;28;20456;-69
2022/04/05 09:51:53;;;;;;;0.90;0.60;;;9.60;99.90;;;;;;5053689;28;20419;-68
2022/04/05 09:54:40;;;;;;;0.60;0.60;;;9.40;99.90;;;;;;5046847;28;20437;-69
2022/04/05 09:57:32;;;;;;;1.60;0.63;;;9.20;99.90;;;;;;5045156;28;20445;-69
2022/04/05 10:00:20;;;;;;;0.50;0.50;;;9.30;99.90;;;;;;5046554;28;20459;-68
2022/04/05 10:03:09;;;;;;;4.37;0.80;;;9.40;99.90;;;;;;5046244;28;20438;-69
2022/04/05 10:05:57;;;;;;;0.57;0.57;;;9.50;99.90;;;;;;5041162;28;20851;-70
2022/04/05 10:08:45;;;;;;;0.50;0.50;;;9.70;99.90;;;;;;5042218;28;20466;-68
2022/04/05 10:11:34;;;;;;;0.50;0.50;;;9.90;99.90;;;;;;5049041;28;20452;-68
2022/04/05 10:14:21;;;;;;;0.67;0.67;;;10.10;99.90;;;;;;5050238;28;20432;-68
2022/04/05 10:17:09;;;;;;;0.70;0.60;;;10.20;99.90;;;;;;5049616;28;20797;-69
2022/04/05 10:19:58;;;;;;;2.97;0.90;;;10.20;99.90;;;;;;5049865;28;20452;-69
2022/04/05 10:22:53;;;;;;;0.80;0.80;;;10.00;99.90;;;;;;5047194;28;20436;-69
2022/04/05 10:25:41;;;;;;;0.60;0.60;;;10.10;99.90;;;;;;5058114;28;20431;-68
2022/04/05 10:28:32;;;;;;;0.60;0.60;;;10.40;99.90;;;;;;5054090;28;20439;-68
2022/04/05 10:31:30;;;;;;;0.50;0.50;;;10.60;99.90;;;;;;5053819;28;20517;-69
2022/04/05 10:34:22;;;;;;;1.47;0.60;;;10.50;99.90;;;;;;5054963;28;20437;-68
2022/04/05 10:37:16;;;;;;;0.50;0.50;;;10.20;99.90;;;;;;5062668;28;20431;-68
2022/04/05 10:40:17;;;;;;;0.50;0.50;;;9.90;99.90;;;;;;5058478;28;20456;-69
2022/04/05 10:43:16;;;;;;;0.40;0.40;;;9.90;99.90;;;;;;5054009;28;20476;-68
2022/04/05 10:46:03;;;;;;;0.50;0.50;;;10.10;99.90;;;;;;5054366;28;20467;-69
2022/04/05 10:48:59;;;;;;;0.40;0.40;;;10.30;99.90;;;;;;5053952;28;20436;-68
2022/04/05 10:52:15;;;;;;;0.50;0.50;;;10.50;99.90;;;;;;5046949;28;20467;-69
2022/04/05 10:55:08;;;;;;;0.50;0.50;;;10.80;99.90;;;;;;5027886;28;20436;-69
2022/04/05 10:58:10;;;;;;;0.50;0.50;;;11.00;99.90;;;;;;5047793;28;20440;-69
2022/04/05 11:01:14;;;;;;;4.40;0.87;;;11.00;99.90;;;;;;5040283;28;20468;-68
2022/04/05 11:04:29;;;;;;;0.50;0.50;;;11.00;99.90;;;;;;5053257;28;20925;-68
2022/04/05 11:07:15;;;;;;;0.40;0.40;;;10.80;99.90;;;;;;5053402;28;20464;-68
2022/04/05 11:10:03;;;;;;;0.60;0.60;;;10.80;99.90;;;;;;5053814;28;20445;-69
2022/04/05 11:12:50;;;;;;;0.80;0.80;;;10.80;99.90;;;;;;5053632;28;20424;-69
2022/04/05 11:15:42;;;;;;;0.60;0.60;;;10.80;99.90;;;;;;5054187;28;20420;-67
2022/04/05 11:18:33;;;;;;;0.80;0.60;;;10.50;99.90;;;;;;5052767;28;20439;-69
2022/04/05 11:21:20;;;;;;;1.90;0.70;;;10.30;99.90;;;;;;5051888;28;20448;-68
2022/04/05 11:24:08;;;;;;;0.40;0.40;;;10.00;99.90;;;;;;5053157;28;20941;-68
2022/04/05 11:27:28;;;;;;;0.93;0.93;;;9.80;99.90;;;;;;5049934;28;20467;-69
2022/04/05 11:30:37;;;;;;;1.90;1.03;;;9.40;99.90;;;;;;5054056;28;20546;-68
2022/04/05 11:33:39;;;;;;;0.50;0.50;;;9.40;99.90;;;;;;5053942;28;20543;-68
2022/04/05 11:36:26;;;;;;;0.40;0.40;;;9.70;99.90;;;;;;5051609;28;20420;-68
2022/04/05 11:39:14;;;;;;;0.40;0.40;;;10.10;99.90;;;;;;5054592;28;20429;-68
2022/04/05 11:42:02;;;;;;;0.50;0.50;;;10.40;99.90;;;;;;5053075;28;20425;-68
2022/04/05 11:44:50;;;;;;;0.50;0.50;;;10.50;99.90;;;;;;5053158;28;20476;-68
2022/04/05 11:47:37;;;;;;;0.90;0.60;;;10.60;99.90;;;;;;5052784;28;20460;-68
2022/04/05 11:50:26;;;;;;;1.20;1.10;;;10.60;99.90;;;;;;5050480;28;20469;-69
2022/04/05 11:53:20;;;;;;;0.90;0.90;;;10.30;99.90;;;;;;5053781;28;20425;-68
2022/04/05 11:56:10;;;;;;;2.20;1.10;;;10.40;99.90;;;;;;5053407;28;20471;-68
2022/04/05 11:58:59;;;;;;;0.50;0.50;;;10.60;99.90;;;;;;5047953;28;20436;-69
2022/04/05 12:01:49;;;;;;;1.10;0.60;;;11.00;99.90;;;;;;5032595;28;20852;-69
2022/04/05 12:04:36;;;;;;;0.50;0.50;;;11.00;99.90;;;;;;5051431;28;20439;-68
2022/04/05 12:07:24;;;;;;;0.50;0.50;;;11.20;99.90;;;;;;5052158;28;20492;-68
2022/04/05 12:10:12;;;;;;;0.50;0.50;;;11.40;99.90;;;;;;5052707;28;20444;-68
2022/04/05 12:12:59;;;;;;;1.90;0.67;;;11.30;99.90;;;;;;5049749;28;20445;-68
2022/04/05 12:15:46;;;;;;;0.50;0.50;;;11.30;99.90;;;;;;5051998;28;20431;-68
2022/04/05 12:18:33;;;;;;;1.23;0.70;;;11.30;99.90;;;;;;5052007;28;20432;-69
2022/04/05 12:21:24;;;;;;;0.60;0.60;;;11.50;99.90;;;;;;5051967;28;20436;-69
2022/04/05 12:24:14;;;;;;;1.30;1.07;;;11.20;99.90;;;;;;5052981;28;20451;-69
2022/04/05 12:27:02;;;;;;;0.50;0.50;;;11.20;99.90;;;;;;5052657;28;20544;-68
2022/04/05 12:29:50;;;;;;;0.47;0.47;;;11.30;99.90;;;;;;5050320;28;20965;-68
2022/04/05 12:32:38;;;;;;;0.50;0.50;;;11.50;99.90;;;;;;5050183;28;20989;-68
2022/04/05 12:35:25;;;;;;;0.60;0.60;;;11.70;99.90;;;;;;5050176;28;21218;-69
2022/04/05 12:38:12;;;;;;;0.50;0.50;;;11.80;99.90;;;;;;5052486;28;20435;-69
2022/04/05 12:41:01;;;;;;;27.33;1.37;;;11.40;99.90;;;;;;5051569;28;20842;-69
2022/04/05 12:44:04;;;;;;;0.60;0.60;;;11.30;99.90;;;;;;5051063;28;20432;-67
2022/04/05 12:46:53;;;;;;;0.50;0.50;;;11.10;99.90;;;;;;5052100;28;20467;-68
2022/04/05 12:49:41;;;;;;;0.50;0.50;;;11.10;99.90;;;;;;5050183;28;21066;-69
2022/04/05 12:52:30;;;;;;;0.40;0.40;;;11.30;99.90;;;;;;5061492;28;21232;-68
2022/04/05 12:55:18;;;;;;;0.60;0.60;;;11.20;99.90;;;;;;5056895;28;20922;-69
2022/04/05 12:58:07;;;;;;;0.43;0.43;;;11.00;99.90;;;;;;5058972;28;20417;-68
2022/04/05 13:00:54;;;;;;;0.60;0.60;;;11.10;99.90;;;;;;5051645;28;20444;-68
2022/04/05 13:03:41;;;;;;;0.50;0.50;;;11.20;99.90;;;;;;5050997;28;20856;-69
2022/04/05 13:06:29;;;;;;;0.50;0.47;;;11.20;99.90;;;;;;5059111;28;20431;-69
2022/04/05 13:09:17;;;;;;;0.53;0.50;;;11.40;99.90;;;;;;5052025;28;20428;-68
2022/04/05 13:12:09;;;;;;;0.50;0.50;;;11.30;99.90;;;;;;5052299;28;20522;-68
2022/04/05 13:15:10;;;;;;;0.60;0.40;;;11.20;99.90;;;;;;5051337;28;20841;-68
2022/04/05 13:18:05;;;;;;;0.70;0.70;;;11.20;99.90;;;;;;5032433;28;20409;-68
2022/04/05 13:21:00;;;;;;;1.67;0.80;;;11.20;99.90;;;;;;5060140;28;20495;-71
2022/04/05 13:24:00;;;;;;;0.50;0.50;;;11.20;99.90;;;;;;5058248;28;20431;-68
2022/04/05 13:26:49;;;;;;;0.50;0.50;;;10.90;99.90;;;;;;5053710;28;20464;-67
2022/04/05 13:29:41;;;;;;;0.50;0.50;;;10.80;99.90;;;;;;5059527;28;20457;-69
2022/04/05 13:32:30;;;;;;;0.53;0.50;;;10.70;99.90;;;;;;5054149;28;20444;-70
2022/04/05 13:35:17;;;;;;;0.40;0.40;;;10.40;99.90;;;;;;5053195;28;20944;-68
2022/04/05 13:38:04;;;;;;;0.50;0.50;;;10.20;99.90;;;;;;5058264;28;20413;-70
2022/04/05 13:40:51;;;;;;;0.50;0.50;;;10.10;99.90;;;;;;5062272;28;20451;-67
2022/04/05 13:43:38;;;;;;;0.50;0.50;;;9.90;99.90;;;;;;5035591;28;20937;-68
2022/04/05 13:46:25;;;;;;;0.90;0.87;;;9.70;99.90;;;;;;5044482;28;20451;-68
2022/04/05 13:49:16;;;;;;;1.70;1.67;;;9.70;99.90;;;;;;5059554;28;20796;-69
2022/04/05 13:52:04;;;;;;;1.13;0.60;;;9.80;99.90;;;;;;5065054;28;20424;-69
2022/04/05 13:54:51;;;;;;;0.80;0.80;;;9.80;99.90;;;;;;5065266;28;20415;-68
2022/04/05 13:57:38;;;;;;;0.60;0.60;;;9.50;99.90;;;;;;5056576;28;20433;-68
2022/04/05 14:00:26;;;;;;;0.40;0.40;;;10.00;99.90;;;;;;5060715;28;20517;-69
2022/04/05 14:03:13;;;;;;;0.50;0.50;;;9.20;99.90;;;;;;5059064;28;20436;-68
2022/04/05 14:06:01;;;;;;;0.97;0.87;;;9.40;99.90;;;;;;5059462;28;20940;-69
2022/04/05 14:08:48;;;;;;;0.60;0.60;;;9.50;99.90;;;;;;5060211;28;20476;-67
2022/04/05 14:11:36;;;;;;;0.50;0.50;;;9.50;99.90;;;;;;5063931;28;20452;-70
2022/04/05 14:14:23;;;;;;;0.57;0.57;;;9.60;99.90;;;;;;5072078;28;20459;-68
2022/04/05 14:17:10;;;;;;;0.50;0.50;;;9.80;99.90;;;;;;5068203;28;20432;-69
2022/04/05 14:19:57;;;;;;;0.80;0.60;;;9.90;99.90;;;;;;5074514;28;20448;-69
2022/04/05 14:22:46;;;;;;;0.60;0.60;;;10.20;99.90;;;;;;5076096;28;20428;-68
2022/04/05 14:25:32;;;;;;;0.50;0.50;;;10.50;99.90;;;;;;5071628;28;20428;-70
2022/04/05 14:28:19;;;;;;;6.67;2.03;;;10.80;99.90;;;;;;5070752;28;20514;-71
2022/04/05 14:31:09;;;;;;;0.50;0.50;;;10.90;99.90;;;;;;5065521;28;20769;-68
2022/04/05 14:33:56;;;;;;;0.40;0.40;;;10.90;99.90;;;;;;5065215;28;20435;-71
2022/04/05 14:36:43;;;;;;;1.03;1.03;;;11.00;99.90;;;;;;5054824;28;20424;-69
2022/04/05 14:39:31;;;;;;;1.17;0.70;;;11.20;99.90;;;;;;5054482;28;20425;-69
2022/04/05 14:42:18;;;;;;;0.60;0.60;;;11.40;99.90;;;;;;5055907;28;21088;-68
2022/04/05 14:45:05;;;;;;;0.40;0.40;;;11.40;99.90;;;;;;5055985;28;20456;-69
2022/04/05 14:47:52;;;;;;;0.50;0.50;;;11.30;99.90;;;;;;5046010;28;20461;-69